Time;durP1;ratioP1;P1;durP2;ratioP2;P2;SDS_P1;SDS_P2;PMS_P1;PMS_P2;Temp;Humidity;BMP_temperature;BMP_pressure;BME280_temperature;BME280_humidity;BME280_pressure;Samples;Min_cycle;Max_cycle;Signal;HPM_P1;HPM_P2
2022/10/09 00:02:07;;;;;;;9.95;8.10;;;;;;;;;;6306406;22;19999;-79
2022/10/09 00:04:33;;;;;;;9.73;7.30;;;;;;;;;;6304791;22;20331;-78
2022/10/09 00:06:59;;;;;;;9.80;8.07;;;;;;;;;;6306874;22;20074;-79
2022/10/09 00:09:25;;;;;;;22.25;19.80;;;;;;;;;;6308255;22;20006;-79
2022/10/09 00:11:52;;;;;;;8.95;7.43;;;;;;;;;;6308551;22;20014;-79
2022/10/09 00:14:18;;;;;;;11.10;9.23;;;;;;;;;;6308410;22;20004;-79
2022/10/09 00:16:44;;;;;;;11.18;8.35;;;;;;;;;;6308443;22;20338;-79
2022/10/09 00:19:10;;;;;;;10.68;8.48;;;;;;;;;;6308341;22;20086;-79
2022/10/09 00:21:36;;;;;;;9.55;8.13;;;;;;;;;;6308018;22;20006;-79
2022/10/09 00:24:03;;;;;;;9.25;8.27;;;;;;;;;;6308521;22;20027;-79
2022/10/09 00:26:30;;;;;;;10.40;8.38;;;;;;;;;;6308045;22;20011;-79
2022/10/09 00:28:56;;;;;;;11.93;8.73;;;;;;;;;;6308381;22;20010;-79
2022/10/09 00:31:22;;;;;;;9.68;7.68;;;;;;;;;;6308043;22;20014;-79
2022/10/09 00:33:48;;;;;;;11.02;8.45;;;;;;;;;;6308474;22;20003;-79
2022/10/09 00:36:25;;;;;;;9.50;7.90;;;;;;;;;;6308270;22;20424;-79
2022/10/09 00:38:51;;;;;;;8.80;7.55;;;;;;;;;;6308162;22;20003;-79
2022/10/09 00:41:19;;;;;;;8.80;7.53;;;;;;;;;;6308064;22;20104;-79
2022/10/09 00:43:46;;;;;;;9.60;8.23;;;;;;;;;;6308221;22;19999;-79
2022/10/09 00:46:24;;;;;;;11.15;8.25;;;;;;;;;;6308109;22;20021;-79
2022/10/09 00:48:53;;;;;;;10.05;8.43;;;;;;;;;;6308392;22;20373;-79
2022/10/09 00:51:19;;;;;;;8.90;7.65;;;;;;;;;;6308247;22;19995;-79
2022/10/09 00:53:45;;;;;;;10.40;8.48;;;;;;;;;;6308329;22;20004;-79
2022/10/09 00:56:12;;;;;;;9.57;8.38;;;;;;;;;;6307346;22;20029;-79
2022/10/09 00:58:38;;;;;;;19.23;15.60;;;;;;;;;;6306677;22;20118;-79
2022/10/09 01:01:04;;;;;;;14.70;11.65;;;;;;;;;;6307728;22;20000;-79
2022/10/09 01:03:30;;;;;;;11.48;10.10;;;;;;;;;;6307272;22;19999;-79
2022/10/09 01:06:15;;;;;;;10.45;9.32;;;;;;;;;;6307691;22;20106;-79
2022/10/09 01:08:41;;;;;;;;;;;;;;;;;;6308464;22;20029;-79
2022/10/09 01:11:27;;;;;;;10.27;8.73;;;;;;;;;;6307901;22;19921;-79
2022/10/09 01:14:16;;;;;;;10.32;9.20;;;;;;;;;;6307442;22;20030;-79
2022/10/09 01:17:01;;;;;;;11.15;9.43;;;;;;;;;;6296089;22;20046;-79
2022/10/09 01:19:27;;;;;;;;;;;;;;;;;;6306435;22;20003;-79
2022/10/09 01:22:07;;;;;;;12.63;9.02;;;;;;;;;;6307915;22;19938;-79
2022/10/09 01:24:37;;;;;;;11.98;9.63;;;;;;;;;;6307651;22;20000;-79
2022/10/09 01:27:22;;;;;;;9.55;8.52;;;;;;;;;;6307632;22;20006;-79
2022/10/09 01:29:48;;;;;;;;;;;;;;;;;;6308009;22;20408;-79
2022/10/09 01:32:18;;;;;;;10.88;8.73;;;;;;;;;;6307854;22;19907;-79
2022/10/09 01:34:45;;;;;;;9.82;8.57;;;;;;;;;;6307494;22;19999;-79
2022/10/09 01:37:12;;;;;;;13.75;9.05;;;;;;;;;;6307806;22;20007;-79
2022/10/09 01:39:39;;;;;;;10.30;9.10;;;;;;;;;;6307180;22;20030;-79
2022/10/09 01:42:05;;;;;;;10.25;8.80;;;;;;;;;;6307654;22;19996;-80
2022/10/09 01:44:32;;;;;;;10.40;8.85;;;;;;;;;;6307412;22;20075;-79
2022/10/09 01:46:59;;;;;;;10.90;8.48;;;;;;;;;;6307528;22;20037;-79
2022/10/09 01:49:25;;;;;;;10.90;8.35;;;;;;;;;;6307407;22;19999;-79
2022/10/09 01:51:56;;;;;;;9.57;8.50;;;;;;;;;;6307217;22;20003;-79
2022/10/09 01:54:34;;;;;;;33.28;28.45;;;;;;;;;;6307528;22;20010;-79
2022/10/09 01:57:01;;;;;;;14.95;12.82;;;;;;;;;;6307478;22;20056;-79
2022/10/09 01:59:28;;;;;;;12.00;10.75;;;;;;;;;;6306927;22;20021;-79
2022/10/09 02:01:56;;;;;;;13.05;9.55;;;;;;;;;;6307493;22;20003;-79
2022/10/09 02:04:22;;;;;;;11.00;9.52;;;;;;;;;;6307230;22;20008;-79
2022/10/09 02:06:48;;;;;;;10.77;9.52;;;;;;;;;;6307338;22;19999;-79
2022/10/09 02:09:16;;;;;;;13.85;11.75;;;;;;;;;;6307644;22;20009;-79
2022/10/09 02:11:46;;;;;;;18.52;15.80;;;;;;;;;;6307079;22;20003;-79
2022/10/09 02:14:12;;;;;;;14.38;12.98;;;;;;;;;;6307537;22;20026;-79
2022/10/09 02:16:43;;;;;;;16.15;13.82;;;;;;;;;;6307036;22;20003;-79
2022/10/09 02:19:27;;;;;;;11.85;10.65;;;;;;;;;;6306788;22;20386;-79
2022/10/09 02:21:53;;;;;;;;;;;;;;;;;;6307762;22;19999;-79
2022/10/09 02:24:21;;;;;;;14.85;11.85;;;;;;;;;;6306963;22;19899;-79
2022/10/09 02:26:47;;;;;;;11.93;9.80;;;;;;;;;;6307175;22;20007;-79
2022/10/09 02:29:14;;;;;;;13.18;8.88;;;;;;;;;;6306807;22;20003;-79
2022/10/09 02:31:42;;;;;;;12.25;8.77;;;;;;;;;;6306499;22;20010;-79
2022/10/09 02:34:10;;;;;;;9.68;8.68;;;;;;;;;;6307004;22;20049;-79
2022/10/09 02:36:37;;;;;;;10.52;8.80;;;;;;;;;;6307070;22;20078;-79
2022/10/09 02:39:03;;;;;;;10.30;8.60;;;;;;;;;;6307132;22;20003;-79
2022/10/09 02:41:29;;;;;;;12.45;9.20;;;;;;;;;;6306818;22;20023;-79
2022/10/09 02:43:56;;;;;;;10.45;9.00;;;;;;;;;;6307101;22;20062;-79
2022/10/09 02:46:22;;;;;;;11.52;9.90;;;;;;;;;;6306869;22;20045;-79
2022/10/09 02:48:48;;;;;;;12.45;9.57;;;;;;;;;;6306931;22;20084;-79
2022/10/09 02:51:14;;;;;;;12.48;10.07;;;;;;;;;;6306614;22;20003;-79
2022/10/09 02:53:40;;;;;;;12.50;10.57;;;;;;;;;;6306953;22;20003;-79
2022/10/09 02:56:07;;;;;;;12.13;10.60;;;;;;;;;;6306895;22;19991;-79
2022/10/09 02:58:33;;;;;;;13.63;10.25;;;;;;;;;;6306552;22;20342;-79
2022/10/09 03:00:59;;;;;;;11.80;10.27;;;;;;;;;;6306937;22;19999;-79
2022/10/09 03:03:26;;;;;;;14.55;10.68;;;;;;;;;;6306575;22;20007;-79
2022/10/09 03:06:02;;;;;;;12.57;10.48;;;;;;;;;;6306823;22;20090;-79
2022/10/09 03:08:28;;;;;;;13.45;10.60;;;;;;;;;;6306622;22;20119;-79
2022/10/09 03:10:54;;;;;;;11.95;10.32;;;;;;;;;;6306837;22;20034;-79
2022/10/09 03:13:20;;;;;;;10.70;9.60;;;;;;;;;;6306648;22;20001;-79
2022/10/09 03:15:46;;;;;;;11.27;9.18;;;;;;;;;;6306684;22;20338;-79
2022/10/09 03:18:12;;;;;;;12.45;10.27;;;;;;;;;;6306562;22;20010;-79
2022/10/09 03:20:38;;;;;;;14.70;10.63;;;;;;;;;;6306733;22;20045;-79
2022/10/09 03:23:04;;;;;;;12.75;10.13;;;;;;;;;;6306803;22;20446;-79
2022/10/09 03:25:30;;;;;;;13.35;11.75;;;;;;;;;;6306397;22;20017;-79
2022/10/09 03:27:56;;;;;;;11.48;9.85;;;;;;;;;;6306629;22;20004;-79
2022/10/09 03:30:23;;;;;;;11.90;10.70;;;;;;;;;;6306511;22;20003;-79
2022/10/09 03:32:49;;;;;;;12.98;10.13;;;;;;;;;;6306802;22;20007;-79
2022/10/09 03:35:15;;;;;;;15.10;11.57;;;;;;;;;;6304982;22;20338;-79
2022/10/09 03:37:41;;;;;;;19.52;14.10;;;;;;;;;;6306281;22;19995;-79
2022/10/09 03:40:07;;;;;;;14.20;11.68;;;;;;;;;;6306776;22;20472;-79
2022/10/09 03:42:33;;;;;;;14.73;12.00;;;;;;;;;;6308165;22;19999;-79
2022/10/09 03:45:03;;;;;;;14.05;11.57;;;;;;;;;;6308683;22;20086;-79
2022/10/09 03:47:29;;;;;;;12.10;10.57;;;;;;;;;;6308268;22;19999;-79
2022/10/09 03:49:55;;;;;;;11.32;10.20;;;;;;;;;;6308597;22;20014;-79
2022/10/09 03:52:21;;;;;;;14.15;11.93;;;;;;;;;;6308696;22;20003;-79
2022/10/09 03:54:47;;;;;;;23.90;19.20;;;;;;;;;;6308589;22;20027;-79
2022/10/09 03:57:13;;;;;;;28.98;23.60;;;;;;;;;;6308520;22;20035;-79
2022/10/09 03:59:39;;;;;;;21.00;17.52;;;;;;;;;;6308256;22;20012;-79
2022/10/09 04:02:14;;;;;;;16.30;14.57;;;;;;;;;;6308702;22;20004;-79
2022/10/09 04:04:40;;;;;;;36.08;32.40;;;;;;;;;;6307730;22;20011;-79
2022/10/09 04:07:06;;;;;;;15.65;11.95;;;;;;;;;;6308618;22;20026;-79
2022/10/09 04:09:32;;;;;;;12.65;10.35;;;;;;;;;;6308407;22;20034;-79
2022/10/09 04:11:58;;;;;;;28.90;24.27;;;;;;;;;;6308551;22;20434;-79
2022/10/09 04:14:24;;;;;;;23.25;20.67;;;;;;;;;;6308269;22;20074;-80
2022/10/09 04:16:50;;;;;;;23.77;21.27;;;;;;;;;;6308530;22;20006;-79
2022/10/09 04:19:17;;;;;;;26.77;24.02;;;;;;;;;;6308312;22;20422;-79
2022/10/09 04:21:43;;;;;;;32.30;29.15;;;;;;;;;;6308307;22;20014;-79
2022/10/09 04:24:09;;;;;;;52.75;45.08;;;;;;;;;;6308615;22;20085;-79
2022/10/09 04:26:35;;;;;;;17.50;15.25;;;;;;;;;;6308030;22;20092;-79
2022/10/09 04:29:01;;;;;;;20.33;16.52;;;;;;;;;;6308410;22;20010;-79
2022/10/09 04:31:27;;;;;;;20.67;18.02;;;;;;;;;;6308352;22;20433;-79
2022/10/09 04:33:56;;;;;;;25.75;22.00;;;;;;;;;;6308337;22;20003;-79
2022/10/09 04:36:23;;;;;;;73.78;60.17;;;;;;;;;;6308267;22;20030;-79
2022/10/09 04:38:49;;;;;;;62.88;50.80;;;;;;;;;;6308172;22;19999;-79
2022/10/09 04:41:15;;;;;;;53.22;46.13;;;;;;;;;;6308341;22;20338;-79
2022/10/09 04:43:41;;;;;;;14.80;11.80;;;;;;;;;;6308023;22;20006;-79
2022/10/09 04:46:08;;;;;;;12.75;11.48;;;;;;;;;;6307960;22;20529;-79
2022/10/09 04:48:41;;;;;;;15.27;12.20;;;;;;;;;;6307967;22;20003;-79
2022/10/09 04:51:08;;;;;;;17.70;14.30;;;;;;;;;;6308144;22;20442;-79
2022/10/09 04:53:34;;;;;;;28.55;21.65;;;;;;;;;;6307432;22;20007;-79
2022/10/09 04:56:04;;;;;;;22.70;19.08;;;;;;;;;;6308091;22;20003;-79
2022/10/09 04:58:30;;;;;;;21.67;18.08;;;;;;;;;;6307856;22;20094;-79
2022/10/09 05:00:57;;;;;;;19.80;16.88;;;;;;;;;;6308097;22;20004;-79
2022/10/09 05:03:23;;;;;;;17.98;15.57;;;;;;;;;;6307975;22;20003;-79
2022/10/09 05:05:49;;;;;;;17.13;14.52;;;;;;;;;;6307819;22;20008;-79
2022/10/09 05:08:15;;;;;;;18.58;15.35;;;;;;;;;;6308017;22;20048;-79
2022/10/09 05:10:41;;;;;;;17.55;14.68;;;;;;;;;;6307658;22;20006;-79
2022/10/09 05:13:07;;;;;;;13.85;11.98;;;;;;;;;;6307965;22;20465;-79
2022/10/09 05:15:36;;;;;;;14.65;12.00;;;;;;;;;;6307744;22;20003;-79
2022/10/09 05:18:02;;;;;;;15.30;13.45;;;;;;;;;;6307977;22;20041;-79
2022/10/09 05:20:28;;;;;;;13.05;11.63;;;;;;;;;;6307834;22;20048;-79
2022/10/09 05:22:54;;;;;;;16.58;14.13;;;;;;;;;;6307781;22;20004;-79
2022/10/09 05:25:20;;;;;;;20.98;14.10;;;;;;;;;;6307800;22;20080;-79
2022/10/09 05:27:46;;;;;;;12.52;10.93;;;;;;;;;;6307556;22;20006;-79
2022/10/09 05:30:12;;;;;;;13.65;11.50;;;;;;;;;;6307882;22;20025;-80
2022/10/09 05:32:39;;;;;;;13.20;11.10;;;;;;;;;;6307534;22;20449;-80
2022/10/09 05:35:05;;;;;;;49.47;39.05;;;;;;;;;;6307654;22;20007;-79
2022/10/09 05:37:31;;;;;;;26.70;22.30;;;;;;;;;;6306006;22;20377;-79
2022/10/09 05:39:57;;;;;;;44.50;34.72;;;;;;;;;;6307507;22;19999;-79
2022/10/09 05:42:23;;;;;;;23.67;19.13;;;;;;;;;;6307721;22;20070;-79
2022/10/09 05:44:49;;;;;;;39.22;33.97;;;;;;;;;;6307236;22;20003;-79
2022/10/09 05:47:16;;;;;;;20.30;18.10;;;;;;;;;;6307630;22;20052;-79
2022/10/09 05:49:43;;;;;;;25.88;21.23;;;;;;;;;;6307359;22;20101;-80
2022/10/09 05:52:09;;;;;;;24.80;20.67;;;;;;;;;;6307490;22;20003;-79
2022/10/09 05:54:35;;;;;;;32.95;23.48;;;;;;;;;;6307422;22;20450;-79
2022/10/09 05:57:02;;;;;;;48.33;30.05;;;;;;;;;;6307302;22;20011;-79
2022/10/09 05:59:28;;;;;;;50.13;33.17;;;;;;;;;;6307419;22;20007;-79
2022/10/09 06:01:54;;;;;;;54.67;33.00;;;;;;;;;;6307097;22;20470;-79
2022/10/09 06:04:22;;;;;;;55.08;33.45;;;;;;;;;;6307118;22;20009;-79
2022/10/09 06:06:48;;;;;;;49.97;30.95;;;;;;;;;;6306890;22;20065;-79
2022/10/09 06:09:18;;;;;;;43.92;26.63;;;;;;;;;;6307302;22;20007;-80
2022/10/09 06:11:44;;;;;;;44.92;30.27;;;;;;;;;;6307207;22;20070;-80
2022/10/09 06:14:12;;;;;;;45.72;30.30;;;;;;;;;;6307404;22;20003;-80
2022/10/09 06:16:39;;;;;;;38.60;27.95;;;;;;;;;;6307151;22;20007;-79
2022/10/09 06:19:06;;;;;;;34.67;23.63;;;;;;;;;;6307194;22;19999;-80
2022/10/09 06:21:32;;;;;;;32.22;22.50;;;;;;;;;;6307228;22;20076;-80
2022/10/09 06:23:59;;;;;;;36.03;23.73;;;;;;;;;;6306956;22;20006;-79
2022/10/09 06:26:30;;;;;;;33.70;20.48;;;;;;;;;;6307216;22;20011;-80
2022/10/09 06:28:57;;;;;;;29.55;18.20;;;;;;;;;;6306965;22;20007;-80
2022/10/09 06:31:24;;;;;;;24.90;17.30;;;;;;;;;;6307237;22;20007;-80
2022/10/09 06:33:51;;;;;;;24.02;15.00;;;;;;;;;;6306890;22;20076;-80
2022/10/09 06:36:21;;;;;;;22.92;17.08;;;;;;;;;;6307026;22;20003;-79
2022/10/09 06:38:47;;;;;;;24.33;17.90;;;;;;;;;;6306905;22;20074;-80
2022/10/09 06:41:15;;;;;;;27.52;18.55;;;;;;;;;;6307107;22;20007;-79
2022/10/09 06:43:41;;;;;;;29.65;19.05;;;;;;;;;;6306884;22;20502;-80
2022/10/09 06:46:09;;;;;;;23.10;16.40;;;;;;;;;;6306852;22;20338;-80
2022/10/09 06:48:36;;;;;;;21.38;17.20;;;;;;;;;;6306956;22;20373;-80
2022/10/09 06:51:03;;;;;;;22.63;16.95;;;;;;;;;;6307295;22;20003;-80
2022/10/09 06:53:29;;;;;;;18.95;14.10;;;;;;;;;;6306972;22;20010;-80
2022/10/09 06:55:57;;;;;;;19.95;13.98;;;;;;;;;;6306691;22;20038;-80
2022/10/09 06:58:23;;;;;;;20.35;13.48;;;;;;;;;;6306855;22;20023;-81
2022/10/09 07:00:49;;;;;;;19.40;14.50;;;;;;;;;;6306575;22;20002;-80
2022/10/09 07:03:15;;;;;;;23.40;15.90;;;;;;;;;;6306839;22;20003;-80
2022/10/09 07:05:42;;;;;;;28.52;18.67;;;;;;;;;;6306545;22;20014;-80
2022/10/09 07:08:08;;;;;;;31.40;19.58;;;;;;;;;;6306622;22;20504;-79
2022/10/09 07:10:34;;;;;;;16.02;12.32;;;;;;;;;;6306794;22;20003;-80
2022/10/09 07:13:00;;;;;;;12.98;9.57;;;;;;;;;;6306617;22;19999;-79
2022/10/09 07:15:26;;;;;;;9.90;8.80;;;;;;;;;;6306447;22;20070;-80
2022/10/09 07:17:52;;;;;;;12.23;10.07;;;;;;;;;;6306458;22;20061;-80
2022/10/09 07:20:18;;;;;;;12.88;10.02;;;;;;;;;;6306830;22;20006;-80
2022/10/09 07:22:48;;;;;;;9.70;8.70;;;;;;;;;;6306715;22;20004;-80
2022/10/09 07:25:14;;;;;;;9.80;8.80;;;;;;;;;;6305079;22;20007;-80
2022/10/09 07:27:40;;;;;;;11.88;9.40;;;;;;;;;;6306431;22;20330;-80
2022/10/09 07:30:10;;;;;;;10.25;8.00;;;;;;;;;;6306516;22;20052;-80
2022/10/09 07:32:36;;;;;;;11.63;8.80;;;;;;;;;;6306857;22;20029;-80
2022/10/09 07:35:02;;;;;;;13.20;8.38;;;;;;;;;;6306751;22;20067;-80
2022/10/09 07:37:28;;;;;;;15.00;9.85;;;;;;;;;;6331226;22;20395;-81
2022/10/09 07:39:54;;;;;;;11.65;9.45;;;;;;;;;;6306423;22;20033;-79
2022/10/09 07:42:21;;;;;;;13.27;8.70;;;;;;;;;;6275698;22;20030;-79
2022/10/09 07:44:48;;;;;;;10.98;9.50;;;;;;;;;;6275356;22;20000;-79
2022/10/09 07:47:14;;;;;;;13.60;9.73;;;;;;;;;;6275527;22;20080;-80
2022/10/09 07:49:40;;;;;;;12.85;9.30;;;;;;;;;;6275755;22;20398;-80
2022/10/09 07:52:06;;;;;;;12.13;10.35;;;;;;;;;;6275393;22;19999;-80
2022/10/09 07:54:32;;;;;;;11.75;9.50;;;;;;;;;;6275849;22;20004;-80
2022/10/09 07:56:58;;;;;;;18.02;14.30;;;;;;;;;;6275019;22;20011;-80
2022/10/09 07:59:24;;;;;;;12.38;9.18;;;;;;;;;;6275184;22;20517;-80
2022/10/09 08:01:50;;;;;;;10.40;8.02;;;;;;;;;;6274477;22;20011;-80
2022/10/09 08:04:16;;;;;;;14.60;12.15;;;;;;;;;;6275521;22;19999;-80
2022/10/09 08:06:42;;;;;;;40.08;31.90;;;;;;;;;;6275577;22;20012;-80
2022/10/09 08:09:08;;;;;;;12.90;10.35;;;;;;;;;;6275433;22;20000;-80
2022/10/09 08:11:35;;;;;;;14.05;9.15;;;;;;;;;;6275680;22;20386;-80
2022/10/09 08:14:01;;;;;;;10.07;8.98;;;;;;;;;;6275394;22;20489;-80
2022/10/09 08:16:27;;;;;;;11.85;9.48;;;;;;;;;;6275585;22;20011;-80
2022/10/09 08:18:57;;;;;;;10.77;9.43;;;;;;;;;;6275506;22;20004;-80
2022/10/09 08:21:26;;;;;;;10.68;8.73;;;;;;;;;;6275579;22;20010;-80
2022/10/09 08:23:53;;;;;;;11.32;9.18;;;;;;;;;;6275645;22;20015;-80
2022/10/09 08:26:21;;;;;;;12.07;10.70;;;;;;;;;;6275443;22;20012;-80
2022/10/09 08:29:07;;;;;;;11.35;9.60;;;;;;;;;;6276512;22;20007;-80
2022/10/09 08:31:34;;;;;;;11.75;8.73;;;;;;;;;;6277459;22;20007;-80
2022/10/09 08:34:01;;;;;;;12.32;9.32;;;;;;;;;;6277362;22;20027;-80
2022/10/09 08:36:28;;;;;;;10.70;8.88;;;;;;;;;;6277331;22;20006;-80
2022/10/09 08:38:54;;;;;;;9.80;8.80;;;;;;;;;;6277156;22;20000;-80
2022/10/09 08:41:26;;;;;;;8.65;7.25;;;;;;;;;;6277242;22;20386;-80
2022/10/09 08:43:56;;;;;;;11.65;9.10;;;;;;;;;;6275522;22;20383;-80
2022/10/09 08:46:28;;;;;;;9.25;7.72;;;;;;;;;;6275562;22;20022;-80
2022/10/09 08:48:55;;;;;;;9.38;8.43;;;;;;;;;;6275532;22;20007;-80
2022/10/09 08:51:23;;;;;;;10.48;8.32;;;;;;;;;;6277105;22;19995;-80
2022/10/09 08:54:01;;;;;;;10.05;8.48;;;;;;;;;;6277085;22;20004;-80
2022/10/09 08:56:28;;;;;;;9.63;8.60;;;;;;;;;;6276878;22;20078;-80
2022/10/09 08:58:55;;;;;;;12.63;8.70;;;;;;;;;;6277149;22;20435;-80
2022/10/09 09:01:36;;;;;;;10.10;8.05;;;;;;;;;;6276861;22;20019;-80
2022/10/09 09:04:21;;;;;;;12.85;9.18;;;;;;;;;;6277088;22;20122;-80
2022/10/09 09:06:47;;;;;;;;;;;;;;;;;;6277611;22;20087;-80
2022/10/09 09:09:19;;;;;;;11.85;8.60;;;;;;;;;;6276818;22;20392;-80
2022/10/09 09:11:45;;;;;;;9.85;7.63;;;;;;;;;;6277028;22;20000;-80
2022/10/09 09:14:18;;;;;;;10.35;8.20;;;;;;;;;;6276825;22;20050;-80
2022/10/09 09:16:56;;;;;;;8.82;7.88;;;;;;;;;;6276897;22;20010;-80
2022/10/09 09:19:37;;;;;;;10.52;7.95;;;;;;;;;;6276482;22;20071;-81
2022/10/09 09:22:03;;;;;;;9.55;5.47;;;;;;;;;;6276943;22;20007;-79
2022/10/09 09:24:48;;;;;;;6.43;4.90;;;;;;;;;;6276257;22;20331;-80
2022/10/09 09:27:18;;;;;;;6.15;5.55;;;;;;;;;;6276699;22;20010;-77
2022/10/09 09:29:48;;;;;;;5.88;4.70;;;;;;;;;;6276885;22;20008;-80
2022/10/09 09:32:17;;;;;;;7.90;5.28;;;;;;;;;;6276491;22;20322;-78
2022/10/09 09:34:43;;;;;;;6.13;5.53;;;;;;;;;;6276756;22;20004;-78
2022/10/09 09:37:13;;;;;;;5.10;4.00;;;;;;;;;;6276442;22;20004;-79
2022/10/09 09:39:40;;;;;;;7.13;4.88;;;;;;;;;;6276559;22;20008;-78
2022/10/09 09:42:09;;;;;;;5.30;4.75;;;;;;;;;;6276457;22;20026;-79
2022/10/09 09:44:37;;;;;;;5.47;4.82;;;;;;;;;;6276423;22;20023;-79
2022/10/09 09:47:03;;;;;;;7.63;5.38;;;;;;;;;;6276465;22;20014;-78
2022/10/09 09:49:29;;;;;;;7.10;6.15;;;;;;;;;;6276499;22;20026;-79
2022/10/09 09:51:57;;;;;;;10.02;6.22;;;;;;;;;;6276631;22;20010;-81
2022/10/09 09:54:28;;;;;;;5.47;4.68;;;;;;;;;;6276128;22;20377;-79
2022/10/09 09:56:56;;;;;;;5.10;4.53;;;;;;;;;;6276398;22;19996;-80
2022/10/09 09:59:35;;;;;;;25.65;20.70;;;;;;;;;;6276035;22;20118;-80
2022/10/09 10:02:02;;;;;;;6.18;4.55;;;;;;;;;;6276017;22;20000;-79
2022/10/09 10:04:29;;;;;;;7.85;6.43;;;;;;;;;;6276254;22;20015;-80
2022/10/09 10:06:55;;;;;;;5.78;5.03;;;;;;;;;;6275966;22;20330;-79
2022/10/09 10:09:21;;;;;;;5.97;4.82;;;;;;;;;;6276112;22;20004;-78
2022/10/09 10:12:08;;;;;;;8.18;5.32;;;;;;;;;;6276201;22;19999;-78
2022/10/09 10:14:34;;;;;;;11.15;8.55;;;;;;;;;;6276009;22;20026;-80
2022/10/09 10:17:01;;;;;;;5.53;4.50;;;;;;;;;;6276005;22;20431;-78
2022/10/09 10:19:34;;;;;;;7.35;5.20;;;;;;;;;;6276054;22;19999;-80
2022/10/09 10:22:04;;;;;;;5.47;4.25;;;;;;;;;;6276378;22;20335;-80
2022/10/09 10:24:32;;;;;;;5.85;4.60;;;;;;;;;;6276046;22;20034;-82
2022/10/09 10:27:01;;;;;;;6.90;4.00;;;;;;;;;;6275977;22;20061;-79
2022/10/09 10:29:36;;;;;;;4.78;4.30;;;;;;;;;;6276004;22;20027;-79
2022/10/09 10:32:21;;;;;;;4.93;4.43;;;;;;;;;;6274511;22;20034;-79
2022/10/09 10:34:53;;;;;;;6.22;4.13;;;;;;;;;;6276203;22;20025;-80
2022/10/09 10:37:37;;;;;;;5.60;3.40;;;;;;;;;;6275803;22;20300;-78
2022/10/09 10:40:03;;;;;;;;;;;;;;;;;;6276283;22;20008;-79
2022/10/09 10:42:29;;;;;;;4.03;3.63;;;;;;;;;;6276070;22;19953;-79
2022/10/09 10:45:02;;;;;;;5.20;4.00;;;;;;;;;;6275704;22;20012;-81
2022/10/09 10:47:30;;;;;;;3.95;3.45;;;;;;;;;;6276044;22;20060;-79
2022/10/09 10:49:56;;;;;;;5.03;3.90;;;;;;;;;;6275605;22;20004;-79
2022/10/09 10:52:31;;;;;;;6.38;3.80;;;;;;;;;;6275587;22;20038;-79
2022/10/09 10:55:00;;;;;;;4.40;3.20;;;;;;;;;;6275502;22;20035;-79
2022/10/09 10:57:45;;;;;;;4.20;3.72;;;;;;;;;;6275669;22;20010;-78
2022/10/09 11:00:12;;;;;;;3.95;3.33;;;;;;;;;;6275988;22;20004;-80
2022/10/09 11:02:48;;;;;;;4.75;3.60;;;;;;;;;;6275292;22;20442;-80
2022/10/09 11:05:21;;;;;;;4.22;3.45;;;;;;;;;;6275627;22;20003;-82
2022/10/09 11:08:06;;;;;;;5.93;3.40;;;;;;;;;;6275770;22;20012;-80
2022/10/09 11:10:35;;;;;;;3.15;2.70;;;;;;;;;;6275691;22;20000;-81
2022/10/09 11:13:13;;;;;;;5.13;3.15;;;;;;;;;;6275519;22;19999;-79
2022/10/09 11:15:54;;;;;;;5.00;3.20;;;;;;;;;;6275664;22;20320;-80
2022/10/09 11:18:28;;;;;;;5.50;3.72;;;;;;;;;;6275683;22;20012;-79
2022/10/09 11:21:00;;;;;;;7.47;4.60;;;;;;;;;;6274944;22;20124;-78
2022/10/09 11:23:41;;;;;;;5.43;3.72;;;;;;;;;;6275344;22;20403;-79
2022/10/09 11:26:07;;;;;;;4.22;3.22;;;;;;;;;;6275493;22;20004;-76
2022/10/09 11:28:52;;;;;;;8.25;5.90;;;;;;;;;;6274631;22;20027;-79
2022/10/09 11:31:25;;;;;;;5.25;4.10;;;;;;;;;;6275241;22;20000;-80
2022/10/09 11:33:58;;;;;;;6.28;3.95;;;;;;;;;;6275547;22;20431;-86
2022/10/09 11:36:32;;;;;;;5.25;4.53;;;;;;;;;;6275572;22;20049;-78
2022/10/09 11:39:00;;;;;;;5.57;4.80;;;;;;;;;;6275494;22;20049;-79
2022/10/09 11:41:27;;;;;;;5.40;4.30;;;;;;;;;;6274079;22;20003;-81
2022/10/09 11:44:00;;;;;;;4.93;3.78;;;;;;;;;;6275308;22;20007;-78
2022/10/09 11:46:35;;;;;;;5.72;4.18;;;;;;;;;;6275550;22;20054;-79
2022/10/09 11:49:16;;;;;;;4.30;3.83;;;;;;;;;;6275596;22;20331;-80
2022/10/09 11:52:01;;;;;;;4.55;3.92;;;;;;;;;;6275247;22;20102;-78
2022/10/09 11:54:27;;;;;;;5.18;4.15;;;;;;;;;;6275179;22;20469;-80
2022/10/09 11:56:55;;;;;;;5.35;4.82;;;;;;;;;;6275581;22;20071;-77
2022/10/09 11:59:29;;;;;;;6.03;3.55;;;;;;;;;;6274997;22;20016;-79
2022/10/09 12:01:55;;;;;;;6.10;4.75;;;;;;;;;;6275883;22;20008;-79
2022/10/09 12:04:24;;;;;;;7.20;4.93;;;;;;;;;;6277410;22;20456;-77
2022/10/09 12:06:52;;;;;;;4.43;4.03;;;;;;;;;;6276806;22;20008;-78
2022/10/09 12:09:29;;;;;;;4.88;4.35;;;;;;;;;;6277201;22;20004;-77
2022/10/09 12:12:14;;;;;;;5.88;4.35;;;;;;;;;;6277175;22;20038;-80
2022/10/09 12:14:40;;;;;;;5.45;4.95;;;;;;;;;;6277397;22;20062;-79
2022/10/09 12:17:21;;;;;;;6.65;5.25;;;;;;;;;;6277492;22;20004;-79
2022/10/09 12:20:01;;;;;;;6.72;5.35;;;;;;;;;;6276994;22;20010;-79
2022/10/09 12:22:33;;;;;;;6.20;5.10;;;;;;;;;;6276968;22;20296;-80
2022/10/09 12:25:04;;;;;;;7.90;4.70;;;;;;;;;;6276795;22;20004;-78
2022/10/09 12:27:32;;;;;;;7.22;5.47;;;;;;;;;;6276897;22;20003;-78
2022/10/09 12:30:19;;;;;;;8.32;5.43;;;;;;;;;;6276804;22;20004;-80
2022/10/09 12:32:48;;;;;;;6.22;5.63;;;;;;;;;;6276796;22;20004;-78
2022/10/09 12:35:33;;;;;;;6.13;5.53;;;;;;;;;;6277119;22;20002;-80
2022/10/09 12:37:59;;;;;;;;;;;;;;;;;;6277456;22;19996;-79
2022/10/09 12:40:27;;;;;;;7.35;6.65;;;;;;;;;;6277068;22;19922;-79
2022/10/09 12:42:53;;;;;;;9.30;7.35;;;;;;;;;;6276111;22;20030;-79
2022/10/09 12:45:30;;;;;;;8.00;6.05;;;;;;;;;;6276961;22;19999;-79
2022/10/09 12:47:58;;;;;;;7.57;6.05;;;;;;;;;;6276825;22;20015;-81
2022/10/09 12:50:24;;;;;;;6.65;6.05;;;;;;;;;;6277103;22;20000;-80
2022/10/09 12:53:00;;;;;;;7.07;5.75;;;;;;;;;;6276537;22;20449;-77
2022/10/09 12:55:28;;;;;;;5.90;5.00;;;;;;;;;;6276880;22;20004;-77
2022/10/09 12:57:55;;;;;;;6.78;5.70;;;;;;;;;;6277025;22;20015;-80
2022/10/09 13:00:21;;;;;;;7.88;6.25;;;;;;;;;;6276867;22;20008;-79
2022/10/09 13:02:47;;;;;;;7.43;6.20;;;;;;;;;;6276852;22;20000;-76
2022/10/09 13:05:14;;;;;;;7.60;6.30;;;;;;;;;;6276875;22;20485;-77
2022/10/09 13:07:40;;;;;;;7.65;6.45;;;;;;;;;;6276980;22;20022;-78
2022/10/09 13:10:26;;;;;;;6.75;6.05;;;;;;;;;;6276986;22;20000;-77
2022/10/09 13:12:54;;;;;;;7.72;6.93;;;;;;;;;;6277015;22;20024;-79
2022/10/09 13:15:32;;;;;;;6.95;5.60;;;;;;;;;;6275831;22;20003;-78
2022/10/09 13:17:58;;;;;;;7.43;6.57;;;;;;;;;;6276220;22;20003;-79
2022/10/09 13:20:30;;;;;;;7.22;6.18;;;;;;;;;;6276294;22;20454;-78
2022/10/09 13:23:05;;;;;;;7.80;7.10;;;;;;;;;;6276766;22;20439;-79
2022/10/09 13:25:36;;;;;;;7.15;6.55;;;;;;;;;;6276750;22;20308;-78
2022/10/09 13:28:03;;;;;;;6.75;6.05;;;;;;;;;;6276461;22;20038;-78
2022/10/09 13:30:29;;;;;;;7.38;6.63;;;;;;;;;;6276684;22;20007;-76
2022/10/09 13:32:55;;;;;;;7.22;6.53;;;;;;;;;;6276491;22;20489;-78
2022/10/09 13:35:21;;;;;;;9.80;7.90;;;;;;;;;;6276602;22;20075;-78
2022/10/09 13:37:48;;;;;;;8.23;7.40;;;;;;;;;;6276396;22;20150;-81
2022/10/09 13:40:16;;;;;;;8.18;7.47;;;;;;;;;;6275979;22;20331;-77
2022/10/09 13:42:45;;;;;;;8.85;8.07;;;;;;;;;;6276378;22;20010;-79
2022/10/09 13:45:11;;;;;;;8.32;7.57;;;;;;;;;;6275936;22;20018;-80
2022/10/09 13:47:38;;;;;;;9.35;8.05;;;;;;;;;;6276560;22;20004;-81
2022/10/09 13:50:04;;;;;;;9.25;8.35;;;;;;;;;;6276371;22;20000;-79
2022/10/09 13:52:30;;;;;;;9.60;8.63;;;;;;;;;;6276507;22;20010;-82
2022/10/09 13:54:56;;;;;;;10.30;9.40;;;;;;;;;;6276056;22;20034;-80
2022/10/09 13:57:22;;;;;;;10.43;9.48;;;;;;;;;;6276578;22;20008;-78
2022/10/09 13:59:48;;;;;;;9.80;8.77;;;;;;;;;;6276116;22;20023;-76
2022/10/09 14:02:14;;;;;;;9.55;8.75;;;;;;;;;;6276118;22;20024;-81
2022/10/09 14:04:40;;;;;;;10.43;9.52;;;;;;;;;;6276406;22;20004;-81
2022/10/09 14:07:06;;;;;;;9.73;8.85;;;;;;;;;;6275967;22;20011;-79
2022/10/09 14:09:32;;;;;;;10.75;9.85;;;;;;;;;;6276703;22;20012;-80
2022/10/09 14:11:59;;;;;;;10.60;9.25;;;;;;;;;;6276148;22;20034;-80
2022/10/09 14:14:25;;;;;;;10.48;9.48;;;;;;;;;;6276412;22;20004;-78
2022/10/09 14:16:51;;;;;;;10.48;9.68;;;;;;;;;;6276250;22;20425;-78
2022/10/09 14:19:17;;;;;;;10.23;9.32;;;;;;;;;;6275866;22;20004;-77
2022/10/09 14:21:45;;;;;;;10.07;9.25;;;;;;;;;;6276187;22;20027;-76
2022/10/09 14:24:13;;;;;;;11.13;10.07;;;;;;;;;;6274434;22;20026;-76
2022/10/09 14:26:40;;;;;;;11.65;10.75;;;;;;;;;;6275403;22;20462;-81
2022/10/09 14:29:06;;;;;;;11.88;10.77;;;;;;;;;;6275928;22;19999;-80
2022/10/09 14:31:32;;;;;;;13.05;11.88;;;;;;;;;;6276173;22;20044;-79
2022/10/09 14:33:58;;;;;;;14.13;12.80;;;;;;;;;;6276127;22;20304;-78
2022/10/09 14:36:25;;;;;;;15.77;14.38;;;;;;;;;;6275931;22;20007;-77
2022/10/09 14:38:51;;;;;;;16.55;14.98;;;;;;;;;;6276020;22;20074;-76
2022/10/09 14:41:17;;;;;;;17.77;16.33;;;;;;;;;;6275596;22;20049;-80